SNC1401 TNCM-TJSJ
Flight info
| Callsign | SNC1401 |
|---|---|
| Flight time | N/A |
| Altitude | 12000 |
| Route | PJM DCT JUICE B520 STT RTE6 CHAKA DCT SNGRA DCT REKUA DCT SJU |
| Aircraft | SH36/M-SDFGRY/S |
Departure
| Time | 2026-05-06 03:49 |
|---|---|
| Airport | Princess Juliana International Airport (TNCM) |
Arrival
| Time | N/A |
|---|---|
| Airport | Luis Munoz Marin International Airport (TJSJ) |
| Time | Latitude | Longitude | Altitude | Speed | Heading |
|---|---|---|---|---|---|
| 2026-05-06 03:33 | 18.04217 | -63.11562 | 25 ft | 0 kts | 152° |
| 2026-05-06 03:37 | 18.04233 | -63.11588 | 24 ft | 0 kts | 320° |
| 2026-05-06 03:45 | 18.04234 | -63.11590 | 23 ft | 0 kts | 320° |
| 2026-05-06 03:47 | 18.04243 | -63.11586 | 23 ft | 4 kts | 59° |
| 2026-05-06 03:47 | 18.04195 | -63.11565 | 23 ft | 13 kts | 158° |
| 2026-05-06 03:47 | 18.04127 | -63.11600 | 24 ft | 17 kts | 230° |
| 2026-05-06 03:47 | 18.04068 | -63.11687 | 23 ft | 15 kts | 248° |
| 2026-05-06 03:48 | 18.04051 | -63.11789 | 23 ft | 10 kts | 261° |
| 2026-05-06 03:48 | 18.04042 | -63.11843 | 22 ft | 12 kts | 260° |
| 2026-05-06 03:48 | 18.04011 | -63.11930 | 23 ft | 13 kts | 233° |
| 2026-05-06 03:48 | 18.03949 | -63.11954 | 22 ft | 8 kts | 132° |
| 2026-05-06 03:49 | 18.03957 | -63.11832 | 22 ft | 39 kts | 82° |
| 2026-05-06 03:49 | 18.04031 | -63.11321 | 28 ft | 97 kts | 83° |
| 2026-05-06 03:49 | 18.04143 | -63.10579 | 352 ft | 104 kts | 90° |
| 2026-05-06 03:49 | 18.04138 | -63.09816 | 668 ft | 108 kts | 110° |
| 2026-05-06 03:50 | 18.04040 | -63.09626 | 735 ft | 112 kts | 128° |
| 2026-05-06 03:50 | 18.03964 | -63.09539 | 773 ft | 114 kts | 134° |
| 2026-05-06 03:50 | 18.03210 | -63.09359 | 1092 ft | 134 kts | 187° |
| 2026-05-06 03:50 | 18.02557 | -63.10138 | 1430 ft | 158 kts | 252° |
| 2026-05-06 03:51 | 18.02469 | -63.10817 | 1894 ft | 154 kts | 261° |